Time;durP1;ratioP1;P1;durP2;ratioP2;P2;SDS_P1;SDS_P2;PMS_P1;PMS_P2;Temp;Humidity;BMP_temperature;BMP_pressure;BME280_temperature;BME280_humidity;BME280_pressure;Samples;Min_cycle;Max_cycle;Signal;HPM_P1;HPM_P2
2022/01/18 00:00:08;;;;;;;38.28;6.80;;;7.10;99.90;;;;;;4930819;28;20584;-75
2022/01/18 00:02:34;;;;;;;35.90;6.53;;;7.10;99.90;;;;;;4932523;28;20483;-75
2022/01/18 00:05:00;;;;;;;49.03;6.30;;;7.10;99.90;;;;;;4931561;28;20047;-75
2022/01/18 00:07:26;;;;;;;39.50;6.68;;;7.10;99.90;;;;;;4930616;28;20047;-75
2022/01/18 00:09:51;;;;;;;41.30;5.72;;;7.10;99.90;;;;;;4937500;28;20043;-75
2022/01/18 00:15:16;;;;;;;32.92;5.70;;;7.10;99.90;;;;;;4932494;28;20137;-75
2022/01/18 00:17:42;;;;;;;42.28;6.13;;;7.10;99.90;;;;;;4938136;28;20039;-75
2022/01/18 00:20:16;;;;;;;39.38;6.35;;;7.00;99.90;;;;;;4930689;28;20075;-75
2022/01/18 00:22:42;;;;;;;37.38;6.47;;;7.00;99.90;;;;;;4941577;28;20044;-75
2022/01/18 00:25:07;;;;;;;38.05;5.30;;;6.90;99.90;;;;;;4934817;28;20054;-75
2022/01/18 00:27:33;;;;;;;35.35;5.05;;;6.90;99.90;;;;;;4938445;28;20138;-75
2022/01/18 00:32:48;;;;;;;44.92;5.85;;;6.90;99.90;;;;;;4937333;28;20048;-75
2022/01/18 00:35:13;;;;;;;44.40;5.22;;;6.80;99.90;;;;;;4938417;28;20471;-75
2022/01/18 00:37:50;;;;;;;42.17;5.97;;;6.80;99.90;;;;;;4937232;28;20062;-75
2022/01/18 00:40:15;;;;;;;41.97;5.72;;;6.80;99.90;;;;;;4930274;28;20071;-75
2022/01/18 00:42:41;;;;;;;34.20;5.40;;;6.70;99.90;;;;;;4942023;28;20044;-75
2022/01/18 00:45:07;;;;;;;35.33;6.38;;;6.70;99.90;;;;;;4930295;28;21200;-75
2022/01/18 00:47:32;;;;;;;33.13;5.13;;;6.70;99.90;;;;;;4930024;28;20419;-75
2022/01/18 00:50:01;;;;;;;30.60;5.55;;;6.70;99.90;;;;;;4932335;28;20046;-75
2022/01/18 00:52:29;;;;;;;36.95;6.38;;;6.70;99.90;;;;;;4935909;28;20047;-75
2022/01/18 00:54:55;;;;;;;29.85;4.93;;;6.60;99.90;;;;;;4937448;28;20039;-75
2022/01/18 00:57:21;;;;;;;31.58;4.90;;;6.60;99.90;;;;;;4938735;28;20039;-75
2022/01/18 00:59:47;;;;;;;33.65;5.07;;;6.60;99.90;;;;;;4937967;28;20126;-75
2022/01/18 01:02:14;;;;;;;42.75;6.20;;;6.60;99.90;;;;;;4930846;28;20495;-75
2022/01/18 01:04:47;;;;;;;36.45;6.38;;;6.60;99.90;;;;;;4934188;28;20094;-75
2022/01/18 01:07:13;;;;;;;42.60;6.13;;;6.60;99.90;;;;;;4935261;28;20567;-75
2022/01/18 01:09:39;;;;;;;31.13;5.60;;;6.60;99.90;;;;;;4938692;28;20430;-75
2022/01/18 01:12:06;;;;;;;50.30;7.93;;;6.60;99.90;;;;;;4936114;28;20047;-75
2022/01/18 01:14:33;;;;;;;44.70;6.30;;;6.60;99.90;;;;;;4935507;28;20051;-75
2022/01/18 01:17:26;;;;;;;38.80;6.25;;;6.60;99.90;;;;;;4938812;28;20070;-75
2022/01/18 01:41:47;;;;;;;32.90;5.82;;;6.60;99.90;;;;;;4937984;28;20154;-75
2022/01/18 01:44:07;;;;;;;34.45;5.50;;;6.60;99.90;;;;;;4937774;28;20122;-74
2022/01/18 01:46:35;;;;;;;41.70;6.82;;;6.60;99.90;;;;;;4934012;28;20055;-74
2022/01/18 01:49:02;;;;;;;37.97;6.50;;;6.60;99.90;;;;;;4946085;28;20055;-74
2022/01/18 01:51:31;;;;;;;35.97;5.88;;;6.60;99.90;;;;;;4933083;28;20113;-74
2022/01/18 01:54:00;;;;;;;41.55;5.70;;;6.60;99.90;;;;;;4938483;28;20520;-74
2022/01/18 01:56:28;;;;;;;39.63;5.50;;;6.50;99.90;;;;;;4937920;28;20098;-74
2022/01/18 01:58:53;;;;;;;41.08;6.93;;;6.50;99.90;;;;;;4932846;28;20614;-74
2022/01/18 02:01:19;;;;;;;51.10;6.00;;;6.50;99.90;;;;;;4935368;28;20130;-74
2022/01/18 02:03:46;;;;;;;33.72;6.32;;;6.50;99.90;;;;;;4942095;28;20054;-74
2022/01/18 02:06:11;;;;;;;33.85;5.90;;;6.50;99.90;;;;;;4938466;28;20059;-74
2022/01/18 02:08:37;;;;;;;31.00;4.82;;;6.50;99.90;;;;;;4937226;28;20043;-74
2022/01/18 02:11:02;;;;;;;49.30;6.22;;;6.50;99.90;;;;;;4940257;28;20106;-74
2022/01/18 02:13:28;;;;;;;29.48;6.00;;;6.50;99.90;;;;;;4941281;28;20102;-74
2022/01/18 02:24:02;;;;;;;45.92;5.72;;;6.50;99.90;;;;;;4940080;28;21075;-75
2022/01/18 02:26:27;;;;;;;29.83;5.15;;;6.50;99.90;;;;;;4939020;28;20066;-74
2022/01/18 02:28:54;;;;;;;42.90;6.40;;;6.50;99.90;;;;;;4933057;28;20044;-74
2022/01/18 02:31:19;;;;;;;59.00;6.72;;;6.50;99.90;;;;;;4934036;28;20039;-74
2022/01/18 02:33:45;;;;;;;32.90;4.88;;;6.50;99.90;;;;;;4933859;28;20100;-74
2022/01/18 02:36:11;;;;;;;33.72;6.15;;;6.50;99.90;;;;;;4934546;28;20035;-74
2022/01/18 02:38:37;;;;;;;31.25;5.13;;;6.50;99.90;;;;;;4933872;28;20043;-74
2022/01/18 02:41:03;;;;;;;35.67;5.05;;;6.50;99.90;;;;;;4934669;28;20055;-74
2022/01/18 02:43:50;;;;;;;43.60;5.95;;;6.50;99.90;;;;;;4938811;28;20062;-74
2022/01/18 02:46:17;;;;;;;30.48;5.38;;;6.50;99.90;;;;;;4938024;28;20150;-74
2022/01/18 02:48:42;;;;;;;35.80;6.22;;;6.50;99.90;;;;;;4933495;28;20066;-74
2022/01/18 02:51:09;;;;;;;24.05;5.15;;;6.50;99.90;;;;;;4932996;28;20395;-75
2022/01/18 02:53:57;;;;;;;26.55;4.40;;;6.50;99.90;;;;;;4936875;28;20055;-74
2022/01/18 02:56:28;;;;;;;37.95;5.30;;;6.50;99.90;;;;;;4939444;28;20502;-74
2022/01/18 02:59:02;;;;;;;32.63;4.47;;;6.50;99.90;;;;;;4934155;28;20059;-74
2022/01/18 03:04:12;;;;;;;29.73;4.03;;;6.50;99.90;;;;;;4937775;28;20538;-74
2022/01/18 03:06:38;;;;;;;28.08;4.50;;;6.50;99.90;;;;;;4932264;28;20040;-75
2022/01/18 03:09:04;;;;;;;20.08;3.83;;;6.50;99.90;;;;;;4936030;28;20039;-74
2022/01/18 03:11:29;;;;;;;25.63;4.82;;;6.50;99.90;;;;;;4936940;28;20217;-75
2022/01/18 03:13:55;;;;;;;24.15;3.88;;;6.50;99.90;;;;;;4936868;28;20055;-74
2022/01/18 03:16:20;;;;;;;31.25;4.57;;;6.50;99.90;;;;;;4940334;28;20044;-75
2022/01/18 03:18:46;;;;;;;20.50;3.55;;;6.50;99.90;;;;;;4932216;28;20078;-74
2022/01/18 03:21:11;;;;;;;33.13;4.93;;;6.50;99.90;;;;;;4935376;28;20046;-75
2022/01/18 03:23:37;;;;;;;23.23;3.75;;;6.50;99.90;;;;;;4945115;28;20104;-74
2022/01/18 03:26:14;;;;;;;26.05;4.22;;;6.50;99.90;;;;;;4936449;28;20074;-75
2022/01/18 03:28:39;;;;;;;28.27;4.63;;;6.50;99.90;;;;;;4929524;28;20151;-75
2022/01/18 03:31:05;;;;;;;24.02;4.53;;;6.60;99.90;;;;;;4942051;28;20122;-75
2022/01/18 03:33:30;;;;;;;28.40;5.00;;;6.60;99.90;;;;;;4936192;28;20059;-75
2022/01/18 03:35:57;;;;;;;19.23;3.97;;;6.60;99.90;;;;;;4934494;28;20055;-74
2022/01/18 03:38:29;;;;;;;16.95;3.45;;;6.50;99.90;;;;;;4933440;28;20573;-75
2022/01/18 03:40:57;;;;;;;20.52;3.67;;;6.60;99.90;;;;;;4931017;28;20108;-75
2022/01/18 03:43:23;;;;;;;22.38;3.55;;;6.60;99.90;;;;;;4937749;29;20062;-74
2022/01/18 03:45:48;;;;;;;28.17;3.72;;;6.60;99.90;;;;;;4933969;28;20035;-74
2022/01/18 03:48:32;;;;;;;25.25;4.05;;;6.60;99.90;;;;;;4935282;28;20521;-74
2022/01/18 03:50:58;;;;;;;25.63;3.90;;;6.60;99.90;;;;;;4931039;28;20051;-74
2022/01/18 03:53:24;;;;;;;15.75;3.42;;;6.60;99.90;;;;;;4932266;28;20390;-74
2022/01/18 03:55:50;;;;;;;31.08;4.45;;;6.60;99.90;;;;;;4930282;28;20056;-75
2022/01/18 03:58:16;;;;;;;23.40;4.47;;;6.50;99.90;;;;;;4941040;28;20436;-74
2022/01/18 04:00:42;;;;;;;18.02;3.63;;;6.60;99.90;;;;;;4937512;28;20189;-74
2022/01/18 04:03:08;;;;;;;27.85;4.05;;;6.60;99.90;;;;;;4935090;28;20086;-75
2022/01/18 04:05:33;;;;;;;24.60;3.78;;;6.60;99.90;;;;;;4932056;28;20089;-75
2022/01/18 04:07:59;;;;;;;17.75;3.10;;;6.50;99.90;;;;;;4940250;28;20402;-74
2022/01/18 04:10:24;;;;;;;18.80;4.28;;;6.50;99.90;;;;;;4931490;28;20449;-75
2022/01/18 04:12:50;;;;;;;18.33;2.95;;;6.60;99.90;;;;;;4934412;28;20060;-75
2022/01/18 04:15:17;;;;;;;16.77;3.03;;;6.60;99.90;;;;;;4936933;28;20043;-75
2022/01/18 04:18:04;;;;;;;16.73;3.55;;;6.60;99.90;;;;;;4931706;28;20081;-75
2022/01/18 04:26:05;;;;;;;14.20;3.58;;;6.60;99.90;;;;;;4941919;28;20380;-75
2022/01/18 04:31:05;;;;;;;23.77;3.75;;;6.70;99.90;;;;;;4926974;28;20447;-74
2022/01/18 04:33:31;;;;;;;20.10;3.22;;;6.60;99.90;;;;;;4933053;28;20143;-75
2022/01/18 04:35:57;;;;;;;21.13;3.13;;;6.60;99.90;;;;;;4932364;28;20123;-75
2022/01/18 04:38:22;;;;;;;20.23;2.72;;;6.60;99.90;;;;;;4935202;28;20057;-75
2022/01/18 04:40:49;;;;;;;16.00;2.20;;;6.60;99.90;;;;;;4935415;28;20482;-75
2022/01/18 04:43:22;;;;;;;17.35;2.40;;;6.70;99.90;;;;;;4932607;28;20054;-75
2022/01/18 04:48:34;;;;;;;20.75;3.15;;;6.60;99.90;;;;;;4932973;28;20063;-75
2022/01/18 04:51:07;;;;;;;13.25;2.85;;;6.60;99.90;;;;;;4943560;28;20109;-75
2022/01/18 04:53:35;;;;;;;15.57;2.58;;;6.60;99.90;;;;;;4939232;28;20040;-75
2022/01/18 04:56:06;;;;;;;18.77;3.10;;;6.60;99.90;;;;;;4940830;28;20051;-75
2022/01/18 04:58:32;;;;;;;17.92;3.15;;;6.60;99.90;;;;;;4941393;28;20040;-75
2022/01/18 05:01:00;;;;;;;18.42;3.28;;;6.60;99.90;;;;;;4942455;28;20054;-75
2022/01/18 05:03:27;;;;;;;15.43;2.15;;;6.60;99.90;;;;;;4934102;28;20052;-75
2022/01/18 05:05:56;;;;;;;21.55;3.10;;;6.60;99.90;;;;;;4933116;28;20044;-75
2022/01/18 05:08:22;;;;;;;22.52;2.95;;;6.60;99.90;;;;;;4936949;28;20151;-75
2022/01/18 05:10:54;;;;;;;22.20;2.75;;;6.60;99.90;;;;;;4939026;28;20043;-75
2022/01/18 05:13:48;;;;;;;22.83;3.78;;;6.50;99.90;;;;;;4943335;28;20520;-75
2022/01/18 05:21:27;;;;;;;23.65;3.00;;;6.50;99.90;;;;;;4934430;28;20047;-74
2022/01/18 05:23:54;;;;;;;16.88;2.50;;;6.50;99.90;;;;;;4941225;28;20536;-75
2022/01/18 05:26:21;;;;;;;19.13;2.47;;;6.50;99.90;;;;;;4934616;28;20043;-75
2022/01/18 05:28:47;;;;;;;25.67;3.17;;;6.50;99.90;;;;;;4955634;28;20071;-75
2022/01/18 05:31:12;;;;;;;18.20;2.88;;;6.50;99.90;;;;;;4947200;28;20075;-75
2022/01/18 05:33:41;;;;;;;16.33;2.33;;;6.50;99.90;;;;;;4941549;28;20491;-75
2022/01/18 05:36:07;;;;;;;16.67;1.98;;;6.50;99.90;;;;;;4939629;28;20082;-75
2022/01/18 05:38:33;;;;;;;14.10;2.58;;;6.50;99.90;;;;;;4941256;28;20043;-75
2022/01/18 05:41:04;;;;;;;12.70;2.53;;;6.50;99.90;;;;;;4939391;28;20418;-75
2022/01/18 05:43:30;;;;;;;18.33;2.20;;;6.50;99.90;;;;;;4933971;28;20142;-75
2022/01/18 05:45:56;;;;;;;13.05;1.88;;;6.50;99.90;;;;;;4934536;28;20134;-75
2022/01/18 05:48:23;;;;;;;19.73;2.33;;;6.50;99.90;;;;;;4941948;28;20044;-74
2022/01/18 05:50:49;;;;;;;14.52;2.45;;;6.50;99.90;;;;;;4932474;28;20143;-75
2022/01/18 05:53:15;;;;;;;15.52;1.95;;;6.60;99.90;;;;;;4944160;28;20098;-74
2022/01/18 05:55:41;;;;;;;14.40;1.85;;;6.50;99.90;;;;;;4932189;28;20103;-75
2022/01/18 05:58:06;;;;;;;17.17;2.03;;;6.50;99.90;;;;;;4937990;28;20427;-74
2022/01/18 06:00:33;;;;;;;12.45;1.63;;;6.50;99.90;;;;;;4937297;28;20048;-75
2022/01/18 06:08:10;;;;;;;14.77;2.10;;;6.60;99.90;;;;;;4934096;28;20054;-75
2022/01/18 06:10:36;;;;;;;19.17;2.13;;;6.60;99.90;;;;;;4935092;28;20047;-75
2022/01/18 06:13:03;;;;;;;12.10;1.65;;;6.60;99.90;;;;;;4942742;28;20051;-78
2022/01/18 06:15:32;;;;;;;12.13;2.10;;;6.60;99.90;;;;;;4934533;28;20082;-79
2022/01/18 06:17:59;;;;;;;14.55;2.13;;;6.60;99.90;;;;;;4937106;28;20063;-79
2022/01/18 06:20:24;;;;;;;11.65;1.40;;;6.60;99.90;;;;;;4932431;28;20114;-79
2022/01/18 06:22:53;;;;;;;16.40;2.00;;;6.60;99.90;;;;;;4933260;28;20055;-79
2022/01/18 06:25:19;;;;;;;14.10;2.00;;;6.60;99.90;;;;;;4931970;28;20079;-76
2022/01/18 06:27:45;;;;;;;16.52;1.88;;;6.60;99.90;;;;;;4932446;28;20055;-77
2022/01/18 06:30:11;;;;;;;13.55;2.20;;;6.60;99.90;;;;;;4931031;28;20047;-77
2022/01/18 06:32:38;;;;;;;12.00;1.75;;;6.60;99.90;;;;;;4935218;28;20040;-77
2022/01/18 06:35:05;;;;;;;16.13;2.55;;;6.60;99.90;;;;;;4941477;28;20055;-76
2022/01/18 06:37:31;;;;;;;13.27;1.98;;;6.60;99.90;;;;;;4939219;28;20047;-77
2022/01/18 06:39:58;;;;;;;11.98;2.03;;;6.60;99.90;;;;;;4895408;28;1041631;-77
2022/01/18 06:42:25;;;;;;;10.85;2.25;;;6.60;99.90;;;;;;4935163;28;20063;-76
2022/01/18 06:44:51;;;;;;;15.25;2.08;;;6.60;99.90;;;;;;4939891;28;20058;-76
2022/01/18 06:47:17;;;;;;;12.25;1.88;;;6.60;99.90;;;;;;4940925;28;20046;-77
2022/01/18 06:49:43;;;;;;;11.68;2.17;;;6.60;99.90;;;;;;4935058;28;20052;-76
2022/01/18 06:52:08;;;;;;;9.52;2.22;;;6.60;99.90;;;;;;4946336;28;20051;-76
2022/01/18 06:54:34;;;;;;;15.18;2.17;;;6.60;99.90;;;;;;4935455;28;20395;-74
2022/01/18 06:57:00;;;;;;;8.63;1.70;;;6.60;99.90;;;;;;4939682;28;20044;-75
2022/01/18 06:59:26;;;;;;;12.18;2.40;;;6.60;99.90;;;;;;4942590;28;20134;-75
2022/01/18 07:01:52;;;;;;;15.38;2.35;;;6.80;99.90;;;;;;4956904;28;20498;-73
2022/01/18 07:04:17;;;;;;;17.13;2.05;;;6.60;99.90;;;;;;4934939;28;20075;-72
2022/01/18 07:06:45;;;;;;;16.10;1.98;;;6.60;99.90;;;;;;4941429;28;20492;-73
2022/01/18 07:09:11;;;;;;;11.98;2.00;;;6.60;99.90;;;;;;4943412;28;20051;-73
2022/01/18 07:11:37;;;;;;;10.48;1.95;;;6.60;99.90;;;;;;4934950;28;20070;-73
2022/01/18 07:14:02;;;;;;;15.77;2.10;;;6.50;99.90;;;;;;4931882;28;20830;-73
2022/01/18 07:16:28;;;;;;;9.93;1.50;;;6.50;99.90;;;;;;4938488;28;20098;-76
2022/01/18 07:18:54;;;;;;;10.50;2.13;;;6.50;99.90;;;;;;4938667;28;20050;-75
2022/01/18 07:21:19;;;;;;;15.82;2.17;;;6.50;99.90;;;;;;4935811;28;20550;-74
2022/01/18 07:23:45;;;;;;;12.55;2.30;;;6.50;99.90;;;;;;4938498;28;20051;-77
2022/01/18 07:26:10;;;;;;;10.80;2.03;;;6.50;99.90;;;;;;4944098;28;20048;-74
2022/01/18 07:28:36;;;;;;;12.02;1.90;;;6.50;99.90;;;;;;4930301;28;20062;-74
2022/01/18 07:31:02;;;;;;;14.60;1.70;;;6.40;99.90;;;;;;4933234;28;20044;-74
2022/01/18 07:33:27;;;;;;;15.55;2.42;;;6.50;99.90;;;;;;4932965;28;20161;-74
2022/01/18 07:35:53;;;;;;;12.93;2.50;;;6.40;99.90;;;;;;4941525;28;20071;-74
2022/01/18 07:38:18;;;;;;;18.52;2.10;;;6.40;99.90;;;;;;4932468;28;20051;-74
2022/01/18 07:40:49;;;;;;;12.75;2.17;;;6.40;99.90;;;;;;4933705;28;20062;-74
2022/01/18 07:43:17;;;;;;;14.07;2.17;;;6.40;99.90;;;;;;4933472;28;20060;-74
2022/01/18 07:45:45;;;;;;;16.88;3.05;;;6.40;99.90;;;;;;4933412;28;20126;-74
2022/01/18 07:48:11;;;;;;;14.25;2.22;;;6.40;99.90;;;;;;4945978;28;20046;-74
2022/01/18 07:50:38;;;;;;;16.70;2.40;;;6.40;99.90;;;;;;4941731;28;20075;-74
2022/01/18 07:53:04;;;;;;;16.23;2.90;;;6.40;99.90;;;;;;4946719;28;20491;-74
2022/01/18 07:55:29;;;;;;;13.55;2.22;;;6.40;99.90;;;;;;4943718;28;20047;-74
2022/01/18 07:57:57;;;;;;;14.77;2.60;;;6.40;99.90;;;;;;4934103;28;21558;-74
2022/01/18 08:00:23;;;;;;;14.50;2.63;;;6.40;99.90;;;;;;4943190;28;20058;-74
2022/01/18 08:02:48;;;;;;;14.93;2.70;;;6.50;99.90;;;;;;4943891;28;20078;-74
2022/01/18 08:05:14;;;;;;;12.73;2.92;;;6.40;99.90;;;;;;4933739;28;20052;-74
2022/01/18 08:07:40;;;;;;;11.73;2.53;;;6.40;99.90;;;;;;4943400;28;20047;-74
2022/01/18 08:10:07;;;;;;;13.25;2.60;;;6.50;99.90;;;;;;4930353;28;20388;-74
2022/01/18 08:12:33;;;;;;;11.93;2.58;;;6.50;99.90;;;;;;4947829;28;20403;-74
2022/01/18 08:15:03;;;;;;;12.25;2.88;;;6.50;99.90;;;;;;4933604;28;20056;-74
2022/01/18 08:17:29;;;;;;;14.77;2.45;;;6.50;99.90;;;;;;4933547;28;20411;-74
2022/01/18 08:19:55;;;;;;;11.38;3.05;;;6.50;99.90;;;;;;4942770;28;20477;-74
2022/01/18 08:22:21;;;;;;;13.70;2.40;;;6.50;99.90;;;;;;4942574;28;20039;-74
2022/01/18 08:24:46;;;;;;;14.13;2.92;;;6.50;99.90;;;;;;4932526;28;20039;-74
2022/01/18 08:27:12;;;;;;;12.07;2.25;;;6.50;99.90;;;;;;4932541;28;20104;-74
2022/01/18 08:29:37;;;;;;;12.95;2.75;;;6.50;99.90;;;;;;4928727;28;20534;-74
2022/01/18 08:32:06;;;;;;;17.92;2.55;;;6.50;99.90;;;;;;4929473;28;20510;-74
2022/01/18 08:34:33;;;;;;;12.27;2.55;;;6.50;99.90;;;;;;4933703;29;20043;-74
2022/01/18 08:36:59;;;;;;;17.15;2.90;;;6.50;99.90;;;;;;4932163;28;20043;-74
2022/01/18 08:39:25;;;;;;;13.23;2.58;;;6.50;99.90;;;;;;4932866;28;20036;-74
2022/01/18 08:41:50;;;;;;;12.90;2.92;;;6.50;99.90;;;;;;4934006;28;20414;-74
2022/01/18 08:44:16;;;;;;;13.20;3.17;;;6.50;99.90;;;;;;4942484;28;20048;-74
2022/01/18 08:46:42;;;;;;;16.65;2.60;;;6.50;99.90;;;;;;5005342;28;20055;-74
2022/01/18 08:49:08;;;;;;;12.27;3.50;;;6.50;99.90;;;;;;4941979;28;20055;-74
2022/01/18 08:51:34;;;;;;;15.98;3.50;;;6.50;99.90;;;;;;4936450;28;20047;-74
2022/01/18 08:54:01;;;;;;;12.65;3.42;;;6.50;99.90;;;;;;4941885;28;20051;-74
2022/01/18 08:56:27;;;;;;;18.15;3.58;;;6.60;99.90;;;;;;4933303;28;20043;-74
2022/01/18 08:58:52;;;;;;;13.25;2.88;;;6.60;99.90;;;;;;4932186;28;20538;-74
2022/01/18 09:01:18;;;;;;;12.50;2.28;;;6.60;99.90;;;;;;4933024;28;20138;-74
2022/01/18 09:03:44;;;;;;;11.50;2.95;;;6.60;99.90;;;;;;4932674;28;20130;-74
2022/01/18 09:06:13;;;;;;;12.88;3.08;;;6.90;99.90;;;;;;4931511;28;20089;-74
2022/01/18 09:08:41;;;;;;;12.90;2.60;;;6.60;99.90;;;;;;4941233;28;20054;-74
2022/01/18 09:11:07;;;;;;;20.50;3.40;;;6.70;99.90;;;;;;4942468;28;20053;-74
2022/01/18 09:13:36;;;;;;;15.70;2.90;;;6.70;99.90;;;;;;4934308;28;20043;-74
2022/01/18 09:16:02;;;;;;;15.77;3.42;;;6.70;99.90;;;;;;4935528;28;20389;-74
2022/01/18 09:18:28;;;;;;;15.43;3.10;;;6.70;99.90;;;;;;4931087;28;20050;-74
2022/01/18 09:20:54;;;;;;;13.27;2.55;;;6.70;99.90;;;;;;4946462;28;20126;-74
2022/01/18 09:23:19;;;;;;;10.35;2.70;;;6.70;99.90;;;;;;4940136;28;20078;-74
2022/01/18 09:25:45;;;;;;;9.57;2.95;;;6.70;99.90;;;;;;4938057;28;20055;-74
2022/01/18 09:28:11;;;;;;;17.48;3.22;;;6.70;99.90;;;;;;4942603;28;20079;-74
2022/01/18 09:30:37;;;;;;;18.83;2.40;;;6.70;99.90;;;;;;4925814;28;20039;-74
2022/01/18 09:33:06;;;;;;;11.48;2.65;;;6.80;99.90;;;;;;4935403;28;20056;-74
2022/01/18 09:35:33;;;;;;;9.68;1.88;;;6.80;99.90;;;;;;4935166;28;20048;-74
2022/01/18 09:37:59;;;;;;;11.70;2.28;;;6.80;99.90;;;;;;4939543;28;20043;-74
2022/01/18 09:40:25;;;;;;;16.10;1.83;;;6.80;99.90;;;;;;5002252;28;20540;-74
2022/01/18 09:42:56;;;;;;;17.98;2.63;;;6.90;99.90;;;;;;4934003;29;20059;-74
2022/01/18 09:45:24;;;;;;;11.65;2.42;;;6.90;99.90;;;;;;4947569;28;20043;-74
2022/01/18 09:47:51;;;;;;;15.32;1.90;;;6.90;99.90;;;;;;4934780;28;20109;-74
2022/01/18 09:50:21;;;;;;;15.05;2.30;;;7.00;99.90;;;;;;4934846;28;20040;-74
2022/01/18 09:52:52;;;;;;;12.98;2.15;;;7.00;99.90;;;;;;4933634;28;20098;-74
2022/01/18 09:55:19;;;;;;;10.73;1.90;;;7.00;99.90;;;;;;4940841;28;20371;-74
2022/01/18 09:57:45;;;;;;;9.65;1.70;;;7.10;99.90;;;;;;4935210;28;20101;-74
2022/01/18 10:00:11;;;;;;;11.82;2.25;;;7.10;99.90;;;;;;4934614;28;20066;-74
2022/01/18 10:02:36;;;;;;;13.70;2.30;;;7.10;99.90;;;;;;4934030;28;20716;-74
2022/01/18 10:05:21;;;;;;;12.27;2.10;;;7.10;99.90;;;;;;4932563;28;20048;-74
2022/01/18 10:08:01;;;;;;;;;;;7.10;99.90;;;;;;4933863;28;20047;-74
2022/01/18 10:10:39;;;;;;;15.57;2.67;;;7.20;99.90;;;;;;4933363;28;20015;-74
2022/01/18 10:13:05;;;;;;;15.48;2.60;;;7.20;99.90;;;;;;4935398;28;20503;-74
2022/01/18 10:15:31;;;;;;;16.40;2.85;;;7.20;99.90;;;;;;4934308;28;20043;-74
2022/01/18 10:18:05;;;;;;;14.95;2.65;;;7.20;99.90;;;;;;4933388;28;20910;-74
2022/01/18 10:20:31;;;;;;;;;;;7.30;99.90;;;;;;4935227;28;20039;-74
2022/01/18 10:22:57;;;;;;;16.08;2.90;;;7.30;99.90;;;;;;4932207;28;19930;-74
2022/01/18 10:25:26;;;;;;;13.75;3.15;;;7.30;99.90;;;;;;4940337;28;20153;-74
2022/01/18 10:27:53;;;;;;;12.27;2.90;;;7.30;99.90;;;;;;4938749;28;20083;-74
2022/01/18 10:30:32;;;;;;;11.20;3.17;;;7.30;99.90;;;;;;4931446;28;20039;-74
2022/01/18 10:33:28;;;;;;;13.35;3.10;;;7.30;99.90;;;;;;4934311;28;20047;-74
2022/01/18 10:36:12;;;;;;;15.90;3.63;;;7.30;99.90;;;;;;4942283;28;20135;-74
2022/01/18 10:38:44;;;;;;;13.07;2.90;;;7.40;99.90;;;;;;4933582;28;20051;-74
2022/01/18 10:41:30;;;;;;;13.82;2.65;;;7.40;99.90;;;;;;4934380;28;20411;-74
2022/01/18 10:44:14;;;;;;;18.48;4.25;;;7.40;99.90;;;;;;4932854;28;20415;-74
2022/01/18 10:46:48;;;;;;;14.60;3.50;;;7.40;99.90;;;;;;4941485;28;20047;-74
2022/01/18 10:49:30;;;;;;;12.88;4.30;;;7.50;99.90;;;;;;4939688;28;20399;-74
2022/01/18 10:52:09;;;;;;;12.15;2.92;;;7.40;99.90;;;;;;4934042;28;20056;-74
2022/01/18 10:55:00;;;;;;;10.50;3.10;;;7.40;99.90;;;;;;4944175;28;20066;-74
2022/01/18 10:57:30;;;;;;;10.60;3.22;;;7.40;99.90;;;;;;4959435;28;20560;-74
2022/01/18 10:59:58;;;;;;;15.82;2.72;;;7.40;99.90;;;;;;4932352;28;20471;-74
2022/01/18 11:02:24;;;;;;;10.90;2.67;;;7.50;99.90;;;;;;4938840;28;20372;-74
2022/01/18 11:04:54;;;;;;;7.90;2.47;;;7.50;99.90;;;;;;4933358;28;20401;-74
2022/01/18 11:07:23;;;;;;;14.68;2.75;;;7.50;99.90;;;;;;4933489;28;20063;-74
2022/01/18 11:09:49;;;;;;;20.38;2.97;;;7.50;99.90;;;;;;4943994;29;20567;-74
2022/01/18 11:12:16;;;;;;;21.10;3.63;;;7.50;99.90;;;;;;4936613;28;20154;-74
2022/01/18 11:14:49;;;;;;;13.55;3.60;;;7.60;99.90;;;;;;4944783;28;20134;-74
2022/01/18 11:17:24;;;;;;;12.43;2.93;;;7.50;99.90;;;;;;4940446;28;20398;-74
2022/01/18 11:19:54;;;;;;;13.05;3.10;;;7.50;99.90;;;;;;4934977;28;20456;-74
2022/01/18 11:22:24;;;;;;;10.57;3.10;;;7.60;99.90;;;;;;4947287;28;20044;-74
2022/01/18 11:24:50;;;;;;;11.88;3.28;;;7.50;99.90;;;;;;4932416;29;20450;-74
2022/01/18 11:27:18;;;;;;;16.17;3.25;;;7.50;99.90;;;;;;4940222;28;20057;-74
2022/01/18 11:29:46;;;;;;;10.65;2.17;;;7.50;99.90;;;;;;4934816;28;20510;-74
2022/01/18 11:32:13;;;;;;;10.82;2.28;;;7.50;99.90;;;;;;4934335;28;20040;-74
2022/01/18 11:35:10;;;;;;;12.13;3.08;;;7.50;99.90;;;;;;4930736;28;20057;-74
2022/01/18 11:38:01;;;;;;;13.70;2.97;;;7.60;99.90;;;;;;4940419;28;20133;-74
2022/01/18 11:40:43;;;;;;;10.57;2.60;;;7.60;99.90;;;;;;4946147;28;20216;-74
2022/01/18 11:43:09;;;;;;;12.90;3.55;;;7.60;99.90;;;;;;4940050;28;20510;-74
2022/01/18 11:45:39;;;;;;;13.77;3.50;;;7.50;99.90;;;;;;4936567;28;20048;-74
2022/01/18 11:48:18;;;;;;;17.83;3.30;;;7.50;99.90;;;;;;4933626;28;20047;-74
2022/01/18 11:50:46;;;;;;;15.20;3.05;;;7.50;99.90;;;;;;4932552;28;20177;-74
2022/01/18 11:53:27;;;;;;;13.32;3.00;;;7.60;99.90;;;;;;4945570;28;20054;-74
2022/01/18 11:55:58;;;;;;;17.63;3.00;;;7.50;99.90;;;;;;4930372;28;20384;-74
2022/01/18 11:58:25;;;;;;;17.00;3.05;;;7.50;99.90;;;;;;4940738;28;20043;-74
2022/01/18 12:00:55;;;;;;;12.20;2.78;;;7.50;99.90;;;;;;4936778;28;20101;-74
2022/01/18 12:03:41;;;;;;;16.33;2.55;;;7.50;99.90;;;;;;4934489;28;20050;-74
2022/01/18 12:06:06;;;;;;;15.60;3.13;;;7.60;99.90;;;;;;4933302;28;20048;-74
2022/01/18 12:08:40;;;;;;;15.15;2.97;;;7.50;99.90;;;;;;4941799;28;20058;-74
2022/01/18 12:11:25;;;;;;;18.65;3.30;;;7.60;99.90;;;;;;4933671;28;20055;-74
2022/01/18 12:13:57;;;;;;;13.20;2.70;;;7.60;99.90;;;;;;4958247;28;20043;-74
2022/01/18 12:16:29;;;;;;;13.20;2.78;;;7.60;99.90;;;;;;4936864;28;20434;-74
2022/01/18 12:19:04;;;;;;;15.82;3.05;;;7.60;99.90;;;;;;4933699;28;20039;-74
2022/01/18 12:21:33;;;;;;;9.55;2.50;;;7.60;99.90;;;;;;4930824;28;20515;-74
2022/01/18 12:24:17;;;;;;;11.63;2.05;;;7.60;99.90;;;;;;4937184;29;20083;-78
2022/01/18 12:26:47;;;;;;;14.30;2.30;;;7.60;99.90;;;;;;4935838;28;20048;-76
2022/01/18 12:29:41;;;;;;;11.02;2.13;;;7.60;99.90;;;;;;4930582;28;20067;-76
2022/01/18 12:34:47;;;;;;;13.85;2.85;;;7.70;99.90;;;;;;4940406;28;20063;-78
2022/01/18 12:37:20;;;;;;;12.50;2.55;;;7.70;99.90;;;;;;4942470;28;20047;-78
2022/01/18 12:39:55;;;;;;;13.95;2.00;;;7.70;99.90;;;;;;4943594;28;20052;-77
2022/01/18 12:44:58;;;;;;;10.23;2.03;;;7.70;99.90;;;;;;4953708;28;20062;-78
2022/01/18 12:47:24;;;;;;;10.00;2.22;;;7.70;99.90;;;;;;4935249;28;20086;-79
2022/01/18 12:49:51;;;;;;;9.55;2.25;;;7.70;99.90;;;;;;4932752;28;20056;-79
2022/01/18 12:52:17;;;;;;;8.60;2.05;;;7.70;99.90;;;;;;4931950;28;20058;-83
2022/01/18 12:54:42;;;;;;;12.48;2.08;;;7.60;99.90;;;;;;4934081;28;20491;-84
2022/01/18 12:57:16;;;;;;;8.13;2.00;;;7.70;99.90;;;;;;4932140;28;20093;-84
2022/01/18 13:00:05;;;;;;;10.10;2.15;;;7.60;99.90;;;;;;4932098;28;20052;-84
2022/01/18 13:02:30;;;;;;;9.50;2.03;;;7.60;99.90;;;;;;4943429;28;20105;-84
2022/01/18 13:05:05;;;;;;;9.90;1.65;;;7.60;99.90;;;;;;4942344;28;20426;-84
2022/01/18 13:07:31;;;;;;;9.70;2.10;;;7.60;99.90;;;;;;4941177;28;20055;-83
2022/01/18 13:10:08;;;;;;;10.48;2.70;;;7.60;99.90;;;;;;4944295;28;20105;-84
2022/01/18 13:12:35;;;;;;;8.18;2.40;;;7.60;99.90;;;;;;4935978;28;20058;-84
2022/01/18 13:15:04;;;;;;;10.50;2.70;;;7.60;99.90;;;;;;4934650;28;20893;-81
2022/01/18 13:23:15;;;;;;;14.95;3.45;;;7.60;99.90;;;;;;4956638;28;20048;-77
2022/01/18 13:25:50;;;;;;;16.83;3.53;;;7.50;99.90;;;;;;4937263;28;20403;-78
2022/01/18 13:28:16;;;;;;;15.95;3.67;;;7.50;99.90;;;;;;4934926;28;20047;-79
2022/01/18 13:30:41;;;;;;;12.98;3.78;;;7.50;99.90;;;;;;4933270;28;20101;-78
2022/01/18 13:33:07;;;;;;;12.57;3.58;;;7.50;99.90;;;;;;4938715;28;20098;-78
2022/01/18 13:35:32;;;;;;;16.13;4.20;;;7.60;99.90;;;;;;4941555;28;20762;-78
2022/01/18 13:38:03;;;;;;;18.30;4.05;;;7.60;99.90;;;;;;4941466;28;20055;-78
2022/01/18 13:40:30;;;;;;;23.27;4.03;;;7.60;99.90;;;;;;4943078;28;20524;-78
2022/01/18 13:43:07;;;;;;;12.90;3.95;;;7.60;99.90;;;;;;4943031;28;20072;-77
2022/01/18 13:45:35;;;;;;;16.17;4.32;;;7.60;99.90;;;;;;4942840;28;20042;-80
2022/01/18 13:48:08;;;;;;;13.75;3.85;;;7.60;99.90;;;;;;4935287;28;20063;-80
2022/01/18 13:50:39;;;;;;;14.93;4.35;;;7.60;99.90;;;;;;4935715;28;20483;-78
2022/01/18 13:53:06;;;;;;;10.57;3.72;;;7.50;99.90;;;;;;4931786;28;20052;-78
2022/01/18 13:55:33;;;;;;;17.85;4.43;;;7.50;99.90;;;;;;4934525;28;20052;-78
2022/01/18 13:58:00;;;;;;;18.15;5.03;;;7.50;99.90;;;;;;4937044;28;20062;-78
2022/01/18 14:00:27;;;;;;;18.00;4.43;;;7.50;99.90;;;;;;4939132;28;20040;-78
2022/01/18 14:02:53;;;;;;;13.23;3.92;;;7.50;99.90;;;;;;4931591;28;20066;-80
2022/01/18 14:05:21;;;;;;;17.83;4.68;;;7.50;99.90;;;;;;4935288;28;20399;-80